createdAt,value
2022-08-17T00:00:43.402Z,11.38
2022-08-17T00:03:19.109Z,11.32
2022-08-17T00:06:12.831Z,11.10
2022-08-17T00:08:56.136Z,11.45
2022-08-17T00:11:26.990Z,12.32
2022-08-17T00:14:01.806Z,12.60
2022-08-17T00:16:51.929Z,12.25
2022-08-17T00:19:26.525Z,12.45
2022-08-17T00:22:32.279Z,12.65
2022-08-17T00:24:47.285Z,13.90
2022-08-17T00:27:16.000Z,12.60
2022-08-17T00:29:46.484Z,12.52
2022-08-17T00:33:11.652Z,13.43
2022-08-17T00:35:10.044Z,12.77
2022-08-17T00:37:38.921Z,12.80
2022-08-17T00:40:11.183Z,14.13
2022-08-17T00:42:40.408Z,12.50
2022-08-17T00:45:11.019Z,12.98
2022-08-17T00:47:39.684Z,12.30
2022-08-17T00:50:12.000Z,12.52
2022-08-17T00:52:46.737Z,12.52
2022-08-17T00:55:15.720Z,12.55
2022-08-17T00:57:51.191Z,12.50
2022-08-17T01:00:27.599Z,11.85
2022-08-17T01:03:07.240Z,12.70
2022-08-17T01:05:42.551Z,12.13
2022-08-17T01:08:14.479Z,12.33
2022-08-17T01:10:59.864Z,12.57
2022-08-17T01:13:40.976Z,12.10
2022-08-17T01:16:36.397Z,12.93
2022-08-17T01:19:17.596Z,12.48
2022-08-17T01:22:08.510Z,12.63
2022-08-17T01:24:40.407Z,12.77
2022-08-17T01:27:10.946Z,12.77
2022-08-17T01:29:41.909Z,12.38
2022-08-17T01:32:10.794Z,12.55
2022-08-17T01:34:43.395Z,12.82
2022-08-17T01:37:14.819Z,11.65
2022-08-17T01:39:48.468Z,12.40
2022-08-17T01:42:22.139Z,12.15
2022-08-17T01:44:57.665Z,12.10
2022-08-17T01:47:26.464Z,12.63
2022-08-17T01:49:58.181Z,13.20
2022-08-17T01:52:26.909Z,12.60
2022-08-17T01:54:56.304Z,11.88
2022-08-17T01:57:24.579Z,12.25
2022-08-17T01:59:53.137Z,13.45
2022-08-17T02:02:31.156Z,13.90
2022-08-17T02:05:00.605Z,13.15
2022-08-17T02:07:29.599Z,12.35
2022-08-17T02:09:58.039Z,12.70
2022-08-17T02:12:39.249Z,13.00
2022-08-17T02:15:10.710Z,13.80
2022-08-17T02:17:41.363Z,12.85
2022-08-17T02:20:11.584Z,13.40
2022-08-17T02:22:45.131Z,12.98
2022-08-17T02:25:19.150Z,13.65
2022-08-17T02:27:52.791Z,12.85
2022-08-17T02:31:00.859Z,12.93
2022-08-17T02:33:10.034Z,13.85
2022-08-17T02:35:39.755Z,12.63
2022-08-17T02:38:08.630Z,12.75
2022-08-17T02:40:38.106Z,13.10
2022-08-17T02:43:07.514Z,12.35
2022-08-17T02:45:36.239Z,13.18
2022-08-17T02:48:05.604Z,12.35
2022-08-17T02:50:34.611Z,12.57
2022-08-17T02:53:04.619Z,12.48
2022-08-17T02:55:41.210Z,13.20
2022-08-17T02:58:11.254Z,13.23
2022-08-17T03:00:43.373Z,12.48
2022-08-17T03:03:14.043Z,13.10
2022-08-17T03:05:42.934Z,13.95
2022-08-17T03:08:13.061Z,12.50
2022-08-17T03:10:43.819Z,14.25
2022-08-17T03:13:15.095Z,13.48
2022-08-17T03:15:48.017Z,13.95
2022-08-17T03:18:24.650Z,13.98
2022-08-17T03:20:56.986Z,12.95
2022-08-17T03:23:26.064Z,13.05
2022-08-17T03:25:56.343Z,13.20
2022-08-17T03:28:25.707Z,14.07
2022-08-17T03:30:54.651Z,13.63
2022-08-17T03:33:23.469Z,13.65
2022-08-17T03:35:52.745Z,14.52
2022-08-17T03:38:21.434Z,14.55
2022-08-17T03:40:57.226Z,14.20
2022-08-17T03:43:32.787Z,13.98
2022-08-17T03:46:34.126Z,14.68
2022-08-17T03:49:24.185Z,15.05
2022-08-17T03:52:12.329Z,15.07
2022-08-17T03:55:01.027Z,15.73
2022-08-17T03:57:30.241Z,14.93
2022-08-17T03:59:58.837Z,15.10
2022-08-17T04:02:33.569Z,15.20
2022-08-17T04:05:02.471Z,15.27
2022-08-17T04:07:32.744Z,15.60
2022-08-17T04:10:01.865Z,15.20
2022-08-17T04:12:45.104Z,14.25
2022-08-17T04:15:13.985Z,14.68
2022-08-17T04:17:44.797Z,15.57
2022-08-17T04:20:15.946Z,15.50
2022-08-17T04:23:04.427Z,15.30
2022-08-17T04:25:36.035Z,15.48
2022-08-17T04:28:05.909Z,15.88
2022-08-17T04:30:45.984Z,14.90
2022-08-17T04:33:21.044Z,15.85
2022-08-17T04:35:52.299Z,15.55
2022-08-17T04:38:23.615Z,16.10
2022-08-17T04:41:11.701Z,15.57
2022-08-17T04:43:41.776Z,16.33
2022-08-17T04:46:16.359Z,16.55
2022-08-17T04:48:47.114Z,16.55
2022-08-17T04:51:26.244Z,17.50
2022-08-17T04:53:58.748Z,17.33
2022-08-17T04:56:28.374Z,17.58
2022-08-17T04:59:00.140Z,17.77
2022-08-17T05:01:31.959Z,17.27
2022-08-17T05:04:33.258Z,16.63
2022-08-17T05:06:55.935Z,16.17
2022-08-17T05:09:24.254Z,16.92
2022-08-17T05:11:52.897Z,15.90
2022-08-17T05:14:32.952Z,16.83
2022-08-17T05:17:07.433Z,16.42
2022-08-17T05:19:39.655Z,16.25
2022-08-17T05:22:08.455Z,16.80
2022-08-17T05:24:38.419Z,16.02
2022-08-17T05:27:08.270Z,15.88
2022-08-17T05:29:37.274Z,15.60
2022-08-17T05:32:39.173Z,15.85
2022-08-17T05:35:01.950Z,15.73
2022-08-17T05:37:30.829Z,15.25
2022-08-17T05:39:59.683Z,17.13
2022-08-17T05:42:28.542Z,16.17
2022-08-17T05:45:00.271Z,18.50
2022-08-17T05:47:29.470Z,15.32
2022-08-17T05:50:00.040Z,15.25
2022-08-17T05:52:39.710Z,16.45
2022-08-17T19:20:03.880Z,28.50
2022-08-17T19:23:07.157Z,27.15
2022-08-17T19:25:41.160Z,26.02
2022-08-17T19:28:42.155Z,25.83
2022-08-17T19:31:29.474Z,27.67
2022-08-17T19:34:01.010Z,26.33
2022-08-17T19:36:57.692Z,25.80
2022-08-17T19:39:41.790Z,26.42
2022-08-17T19:42:19.936Z,26.30
2022-08-17T19:44:57.586Z,26.13
2022-08-17T19:47:53.170Z,26.27
2022-08-17T19:50:58.980Z,25.77
2022-08-17T19:53:54.208Z,24.77
2022-08-17T19:56:43.977Z,26.25
2022-08-17T19:59:16.903Z,25.98
2022-08-17T20:01:51.523Z,26.38
2022-08-17T20:04:44.025Z,25.88
2022-08-17T20:07:23.255Z,26.02
2022-08-17T20:10:03.111Z,26.80
2022-08-17T20:12:38.016Z,26.45
2022-08-17T20:15:17.781Z,25.45
2022-08-17T20:17:48.436Z,29.95
2022-08-17T20:20:25.561Z,26.05
2022-08-17T20:23:12.488Z,25.95
2022-08-17T20:26:05.522Z,26.20
2022-08-17T20:28:36.765Z,26.75
2022-08-17T20:31:43.778Z,25.58
2022-08-17T20:34:33.540Z,22.03
2022-08-17T20:37:15.601Z,19.13
2022-08-17T20:40:09.792Z,19.35
2022-08-17T20:42:40.045Z,17.55
2022-08-17T20:45:26.873Z,17.08
2022-08-17T20:48:27.224Z,15.23
2022-08-17T20:50:59.710Z,14.57
2022-08-17T20:53:49.755Z,15.27
2022-08-17T20:56:43.887Z,13.38
2022-08-17T20:59:21.891Z,12.40
2022-08-17T21:02:18.508Z,11.68
2022-08-17T21:07:42.932Z,11.65
2022-08-17T21:10:19.006Z,11.68
2022-08-17T21:12:53.665Z,11.23
2022-08-17T21:16:01.551Z,11.18
2022-08-17T21:21:32.439Z,10.73
2022-08-17T21:24:20.155Z,9.65
2022-08-17T21:26:56.142Z,11.73
2022-08-17T21:29:32.287Z,12.45
2022-08-17T21:32:02.721Z,12.18
2022-08-17T21:34:34.825Z,11.05
2022-08-17T21:37:23.362Z,11.30
2022-08-17T21:39:55.990Z,11.02
2022-08-17T21:42:32.131Z,11.05
2022-08-17T21:45:22.386Z,9.82
2022-08-17T21:48:08.756Z,9.07
2022-08-17T21:50:38.217Z,10.10
2022-08-17T21:53:07.360Z,9.63
2022-08-17T21:55:37.992Z,8.88
2022-08-17T21:58:19.771Z,9.75
2022-08-17T22:01:13.512Z,9.30
2022-08-17T22:03:42.620Z,10.40
2022-08-17T22:06:56.744Z,8.73
2022-08-17T22:09:27.971Z,10.13
2022-08-17T22:12:01.085Z,9.02
2022-08-17T22:14:52.301Z,9.52
2022-08-17T22:17:28.447Z,9.23
2022-08-17T22:20:07.059Z,9.27
2022-08-17T22:23:00.722Z,9.10
2022-08-17T22:25:31.918Z,9.35
2022-08-17T22:28:04.036Z,8.70
2022-08-17T22:30:38.957Z,9.27
2022-08-17T22:33:41.450Z,10.23
2022-08-17T22:36:29.508Z,9.55
2022-08-17T22:39:23.523Z,9.32
2022-08-17T22:41:56.595Z,10.15
2022-08-17T22:44:32.402Z,10.25
2022-08-17T22:47:31.357Z,10.07
2022-08-17T22:50:03.277Z,10.30
2022-08-17T22:53:01.957Z,10.23
2022-08-17T22:55:51.156Z,10.57
2022-08-17T22:58:41.238Z,10.82
2022-08-17T23:01:31.007Z,11.43
2022-08-17T23:04:08.690Z,12.77
2022-08-17T23:06:39.938Z,11.02
2022-08-17T23:09:09.053Z,12.77
2022-08-17T23:11:48.722Z,11.90
2022-08-17T23:14:21.005Z,13.77
2022-08-17T23:16:51.696Z,13.80
2022-08-17T23:19:22.289Z,14.77
2022-08-17T23:21:53.926Z,14.80
2022-08-17T23:24:25.967Z,14.73
2022-08-17T23:26:57.807Z,14.73
2022-08-17T23:29:30.131Z,14.13
2022-08-17T23:32:02.093Z,15.35
2022-08-17T23:34:31.047Z,14.70
2022-08-17T23:37:03.528Z,13.43
2022-08-17T23:39:32.754Z,14.25
2022-08-17T23:42:05.848Z,13.23
2022-08-17T23:44:36.526Z,14.00
2022-08-17T23:47:05.658Z,12.30
2022-08-17T23:49:34.332Z,12.65
2022-08-17T23:52:08.091Z,12.25
2022-08-17T23:54:45.076Z,12.38
2022-08-17T23:57:17.353Z,12.02
2022-08-17T23:59:46.353Z,11.75
